Time;durP1;ratioP1;P1;durP2;ratioP2;P2;SDS_P1;SDS_P2;PMS_P1;PMS_P2;Temp;Humidity;BMP_temperature;BMP_pressure;BME280_temperature;BME280_humidity;BME280_pressure;Samples;Min_cycle;Max_cycle;Signal;HPM_P1;HPM_P2
2022/04/06 00:00:31;;;;;;;3.80;3.70;;;;;;;9.33;86.57;100132.22;6114230;23;20025;-70
2022/04/06 00:02:58;;;;;;;3.80;3.70;;;;;;;9.01;86.22;100080.81;6084823;23;20108;-70
2022/04/06 00:05:24;;;;;;;5.65;5.45;;;;;;;9.16;86.80;100101.75;6082908;23;20046;-70
2022/04/06 00:07:51;;;;;;;3.80;3.70;;;;;;;9.04;86.58;100075.41;6063714;23;20031;-70
2022/04/06 00:10:17;;;;;;;5.43;5.15;;;;;;;9.15;86.97;100096.59;6109711;23;20016;-70
2022/04/06 00:12:44;;;;;;;4.20;4.00;;;;;;;9.26;87.40;100109.94;6095843;23;20512;-70
2022/04/06 00:15:12;;;;;;;3.97;3.83;;;;;;;9.06;87.37;100078.78;6117704;23;20021;-69
2022/04/06 00:17:38;;;;;;;3.75;3.63;;;;;;;9.31;87.58;100104.44;6084691;23;20025;-70
2022/04/06 00:20:07;;;;;;;3.90;3.70;;;;;;;9.16;87.64;100091.28;6091744;23;20021;-70
2022/04/06 00:22:33;;;;;;;4.00;3.80;;;;;;;9.09;88.29;100074.22;6111369;23;20032;-70
2022/04/06 00:25:00;;;;;;;4.07;3.88;;;;;;;9.25;87.56;100107.41;6104537;23;20017;-70
2022/04/06 00:27:26;;;;;;;5.72;5.15;;;;;;;9.12;88.09;100086.28;6107365;23;20231;-70
2022/04/06 00:29:53;;;;;;;3.80;3.70;;;;;;;9.22;87.87;100107.56;6115068;23;20197;-69
2022/04/06 00:32:20;;;;;;;5.28;5.07;;;;;;;8.93;88.23;100065.53;6115396;23;20182;-70
2022/04/06 00:37:31;;;;;;;4.00;3.85;;;;;;;9.11;87.75;100089.84;6085598;23;20512;-70
2022/04/06 00:39:58;;;;;;;4.30;4.10;;;;;;;9.15;87.70;100104.44;6085409;23;20502;-69
2022/04/06 00:42:25;;;;;;;6.20;5.90;;;;;;;8.97;88.64;100077.53;6104166;23;20026;-70
2022/04/06 00:44:51;;;;;;;3.70;3.60;;;;;;;8.81;87.82;100045.28;6096601;23;20310;-70
2022/04/06 00:47:17;;;;;;;5.28;5.07;;;;;;;9.12;88.15;100108.09;6094941;23;20067;-69
2022/04/06 00:49:44;;;;;;;4.10;3.90;;;;;;;9.10;87.76;100099.47;6114080;23;20268;-70
2022/04/06 00:52:11;;;;;;;4.30;4.10;;;;;;;8.88;88.17;100052.72;6101474;23;20104;-69
2022/04/06 00:54:38;;;;;;;3.65;3.55;;;;;;;9.12;87.73;100095.00;6057894;23;20081;-70
2022/04/06 00:57:05;;;;;;;3.80;3.70;;;;;;;8.96;87.01;100067.97;6114861;23;20088;-70
2022/04/06 00:59:31;;;;;;;3.78;3.67;;;;;;;9.03;86.37;100069.31;6110376;23;20035;-70
2022/04/06 01:01:59;;;;;;;4.10;3.90;;;;;;;9.10;86.11;100082.91;6093887;23;20145;-70
2022/04/06 01:04:26;;;;;;;5.28;5.07;;;;;;;9.10;87.63;100081.16;6092215;23;20045;-70
2022/04/06 01:06:53;;;;;;;3.90;3.70;;;;;;;9.08;87.35;100085.63;6092260;23;20090;-70
2022/04/06 01:09:21;;;;;;;4.10;3.90;;;;;;;9.07;86.94;100081.31;6113337;23;20429;-69
2022/04/06 01:11:49;;;;;;;3.70;3.60;;;;;;;8.99;86.82;100068.66;6109348;23;20501;-69
2022/04/06 01:14:17;;;;;;;5.95;5.65;;;;;;;8.46;86.36;99994.00;6092961;23;20080;-70
2022/04/06 01:16:59;;;;;;;3.70;3.60;;;;;;;7.92;87.06;99881.03;6113045;23;20096;-70
2022/04/06 01:19:34;;;;;;;4.63;4.43;;;;;;;9.02;87.04;100085.97;6096660;23;20177;-70
2022/04/06 01:22:08;;;;;;;4.20;4.00;;;;;;;8.82;87.00;100036.50;6105151;23;20626;-70
2022/04/06 01:24:35;;;;;;;4.00;3.80;;;;;;;8.67;86.88;100018.09;6114212;23;20450;-69
2022/04/06 01:27:02;;;;;;;4.20;4.00;;;;;;;8.99;86.70;100075.66;6119741;23;20089;-70
2022/04/06 01:29:28;;;;;;;5.63;5.13;;;;;;;8.99;86.98;100078.28;6095260;23;20069;-70
2022/04/06 01:31:55;;;;;;;4.03;3.85;;;;;;;8.44;87.14;99990.63;6108544;23;20132;-69
2022/04/06 01:34:22;;;;;;;5.18;4.97;;;;;;;8.99;87.00;100076.50;6085463;23;20018;-69
2022/04/06 01:36:48;;;;;;;3.60;3.50;;;;;;;8.96;86.53;100078.44;6085404;23;20055;-70
2022/04/06 01:39:14;;;;;;;5.32;5.13;;;;;;;8.87;87.16;100065.88;6113138;23;20021;-70
2022/04/06 01:41:41;;;;;;;4.53;4.32;;;;;;;8.97;86.33;100067.88;6121247;23;20040;-70
2022/04/06 01:44:07;;;;;;;4.60;4.25;;;;;;;8.71;86.66;100032.69;6105984;23;20037;-69
2022/04/06 01:46:34;;;;;;;4.28;4.07;;;;;;;8.96;87.00;100073.19;6126631;23;20025;-70
2022/04/06 01:54:30;;;;;;;5.88;5.57;;;;;;;8.95;86.60;100059.28;6108569;23;20010;-70
2022/04/06 01:56:57;;;;;;;4.82;4.60;;;;;;;8.99;86.08;100066.03;6113458;23;20096;-70
2022/04/06 01:59:23;;;;;;;5.55;5.35;;;;;;;8.67;85.30;100007.66;6104462;23;20025;-69
2022/04/06 02:01:52;;;;;;;4.00;3.80;;;;;;;8.85;85.74;100028.50;6110065;23;20031;-69
2022/04/06 02:04:19;;;;;;;5.57;5.38;;;;;;;8.74;86.27;100014.22;6089615;23;20001;-71
2022/04/06 02:06:46;;;;;;;4.45;4.25;;;;;;;8.96;86.34;100055.75;6113651;23;20018;-69
2022/04/06 02:09:17;;;;;;;5.45;5.25;;;;;;;8.55;85.86;99984.78;6098223;23;20063;-70
2022/04/06 02:11:44;;;;;;;3.70;3.60;;;;;;;8.94;85.37;100046.28;6111570;23;20010;-69
2022/04/06 02:14:10;;;;;;;4.22;4.07;;;;;;;8.66;85.43;100003.34;6107185;23;20017;-70
2022/04/06 02:16:37;;;;;;;3.78;3.67;;;;;;;8.93;86.26;100060.31;6112913;23;20021;-70
2022/04/06 02:19:05;;;;;;;4.07;3.88;;;;;;;8.77;86.02;100026.28;6106942;23;20091;-69
2022/04/06 02:21:32;;;;;;;4.20;4.00;;;;;;;8.93;85.91;100047.22;6090548;23;20097;-69
2022/04/06 02:23:59;;;;;;;3.92;3.80;;;;;;;8.84;86.46;100037.25;6086902;23;20030;-70
2022/04/06 02:26:27;;;;;;;5.55;5.35;;;;;;;8.64;85.91;99997.38;6080604;23;20014;-70
2022/04/06 02:28:55;;;;;;;4.10;3.90;;;;;;;8.94;85.75;100035.81;6085524;23;20033;-70
2022/04/06 02:31:22;;;;;;;5.32;5.13;;;;;;;7.62;85.62;99845.19;6089794;23;20029;-70
2022/04/06 02:33:49;;;;;;;3.70;3.60;;;;;;;8.86;85.50;100027.53;6085039;23;20025;-70
2022/04/06 02:36:16;;;;;;;5.45;5.25;;;;;;;8.82;85.15;100010.34;6083705;23;20046;-70
2022/04/06 02:38:43;;;;;;;3.95;3.75;;;;;;;8.61;85.63;99979.22;6077821;23;20038;-70
2022/04/06 02:41:10;;;;;;;4.15;4.00;;;;;;;8.99;84.93;100012.84;6087626;23;20056;-69
2022/04/06 02:43:38;;;;;;;4.00;3.80;;;;;;;8.96;85.58;100033.94;6067387;23;20024;-69
2022/04/06 02:46:04;;;;;;;3.80;3.70;;;;;;;8.93;85.26;100031.53;6091213;23;20018;-70
2022/04/06 02:48:31;;;;;;;4.40;4.20;;;;;;;8.94;85.18;100026.19;6085495;23;20021;-70
2022/04/06 02:50:58;;;;;;;4.20;4.00;;;;;;;8.93;85.74;100028.91;6082425;23;20030;-71
2022/04/06 02:53:24;;;;;;;5.65;5.43;;;;;;;8.90;85.63;100034.28;6088192;23;20573;-69
2022/04/06 02:55:51;;;;;;;3.80;3.70;;;;;;;8.69;86.27;100003.16;6085237;23;20079;-70
2022/04/06 02:58:18;;;;;;;5.57;5.38;;;;;;;8.85;86.17;100031.94;6081460;23;20084;-70
2022/04/06 03:00:44;;;;;;;3.80;3.70;;;;;;;8.66;85.57;99995.50;6080503;23;20068;-70
2022/04/06 03:03:11;;;;;;;5.07;4.80;;;;;;;8.57;85.62;99965.47;6086895;23;20100;-69
2022/04/06 03:05:39;;;;;;;3.70;3.60;;;;;;;8.86;85.64;100022.31;6055026;23;20093;-69
2022/04/06 03:08:07;;;;;;;3.80;3.70;;;;;;;8.87;86.37;100021.41;6086154;23;20093;-70
2022/04/06 03:10:34;;;;;;;3.85;3.67;;;;;;;8.78;85.51;100015.75;6081816;23;20038;-71
2022/04/06 03:13:00;;;;;;;3.75;3.65;;;;;;;8.87;85.89;100029.25;6090123;23;20085;-71
2022/04/06 03:15:27;;;;;;;4.80;4.60;;;;;;;8.78;85.97;100002.66;6083826;23;20017;-70
2022/04/06 03:17:54;;;;;;;3.78;3.67;;;;;;;8.52;86.42;99961.41;6090435;23;20065;-70
2022/04/06 03:20:20;;;;;;;7.45;7.13;;;;;;;8.61;86.68;99986.22;6087956;23;20021;-70
2022/04/06 03:22:46;;;;;;;4.50;4.30;;;;;;;8.80;86.59;100020.91;6117089;23;20018;-70
2022/04/06 03:25:13;;;;;;;4.13;3.92;;;;;;;8.49;86.71;99983.34;6117829;23;20476;-70
2022/04/06 03:27:39;;;;;;;3.80;3.70;;;;;;;8.26;87.33;99934.91;6114015;23;20021;-73
2022/04/06 03:30:11;;;;;;;3.50;3.40;;;;;;;8.34;86.42;99944.97;6080285;23;20016;-73
2022/04/06 03:32:40;;;;;;;3.65;3.55;;;;;;;8.77;86.78;100006.19;6115079;23;20408;-75
2022/04/06 03:35:07;;;;;;;4.07;3.88;;;;;;;8.53;86.89;99986.66;6108687;23;20033;-74
2022/04/06 03:37:33;;;;;;;3.70;3.60;;;;;;;8.51;86.69;99991.94;6111883;23;20025;-74
2022/04/06 03:40:01;;;;;;;4.00;3.80;;;;;;;8.44;86.89;99963.59;6092735;23;20668;-73
2022/04/06 03:42:27;;;;;;;4.75;4.40;;;;;;;8.54;87.29;99985.72;6113586;23;20025;-76
2022/04/06 03:44:54;;;;;;;3.70;3.60;;;;;;;8.64;87.59;100009.56;6109948;23;20030;-76
2022/04/06 03:47:26;;;;;;;5.25;5.05;;;;;;;8.28;87.00;99940.03;6113485;23;20036;-75
2022/04/06 03:49:53;;;;;;;3.70;3.60;;;;;;;8.39;86.21;99958.59;6124400;23;20012;-73
2022/04/06 03:52:19;;;;;;;5.57;5.35;;;;;;;8.65;86.06;100006.88;6110148;23;20029;-73
2022/04/06 03:54:46;;;;;;;4.03;3.83;;;;;;;8.67;86.30;100002.41;6112765;23;20031;-76
2022/04/06 03:57:13;;;;;;;4.72;4.53;;;;;;;8.52;85.22;99971.88;6118845;23;20124;-74
2022/04/06 03:59:39;;;;;;;3.67;3.58;;;;;;;8.49;84.90;99974.66;6089668;23;20024;-74
2022/04/06 04:02:06;;;;;;;3.80;3.70;;;;;;;8.54;84.42;99968.25;6107015;23;20080;-75
2022/04/06 04:04:33;;;;;;;4.00;3.80;;;;;;;8.68;84.54;99988.41;6115026;23;20005;-76
2022/04/06 04:06:59;;;;;;;4.07;3.88;;;;;;;8.23;85.06;99929.84;6123136;23;20025;-74
2022/04/06 04:09:28;;;;;;;5.35;5.15;;;;;;;8.71;83.56;99985.63;6105847;23;20340;-75
2022/04/06 04:11:56;;;;;;;3.70;3.60;;;;;;;8.66;83.26;99989.41;6091000;23;20248;-73
2022/04/06 04:14:23;;;;;;;5.47;5.18;;;;;;;8.65;83.49;99996.41;6111281;23;20021;-73
2022/04/06 04:16:49;;;;;;;3.65;3.55;;;;;;;8.63;82.78;99981.75;6078223;23;20025;-75
2022/04/06 04:19:16;;;;;;;5.97;5.68;;;;;;;8.50;82.71;99953.66;6107165;23;20036;-75
2022/04/06 04:21:43;;;;;;;3.60;3.50;;;;;;;8.70;82.41;99980.47;6115421;23;20018;-74
2022/04/06 04:24:09;;;;;;;4.00;3.88;;;;;;;8.42;81.57;99955.88;6101118;23;20145;-75
2022/04/06 04:26:38;;;;;;;4.00;3.80;;;;;;;8.56;81.17;99962.94;6090928;23;20031;-75
2022/04/06 04:29:05;;;;;;;3.85;3.67;;;;;;;8.43;80.92;99939.22;6112597;23;20013;-73
2022/04/06 04:31:32;;;;;;;4.10;3.90;;;;;;;8.66;81.24;99978.94;6110189;23;20463;-73
2022/04/06 04:33:59;;;;;;;4.10;3.90;;;;;;;8.40;81.39;99942.00;6119264;23;20096;-74
2022/04/06 04:36:26;;;;;;;5.97;5.68;;;;;;;8.67;80.48;99981.50;6107925;23;20104;-73
2022/04/06 04:38:52;;;;;;;3.78;3.67;;;;;;;8.55;80.25;99963.88;6092004;23;20100;-74
2022/04/06 04:41:19;;;;;;;5.25;5.05;;;;;;;8.65;80.99;99979.91;6106992;23;20053;-74
2022/04/06 04:43:45;;;;;;;3.67;3.58;;;;;;;8.68;80.56;99988.41;6112601;23;20037;-75
2022/04/06 04:46:12;;;;;;;4.15;3.97;;;;;;;8.64;80.63;99981.69;6086680;23;20100;-77
2022/04/06 04:48:38;;;;;;;4.00;3.80;;;;;;;8.61;80.57;99975.75;6083029;23;20125;-74
2022/04/06 04:51:05;;;;;;;3.80;3.70;;;;;;;8.45;80.21;99960.91;6103164;23;20050;-75
2022/04/06 04:53:33;;;;;;;4.05;3.85;;;;;;;8.50;81.19;99955.41;6085016;23;20478;-70
2022/04/06 04:55:59;;;;;;;3.60;3.50;;;;;;;8.46;80.64;99956.50;6110392;23;20089;-71
2022/04/06 04:58:27;;;;;;;5.10;4.90;;;;;;;8.61;81.32;99981.81;6103906;23;20029;-70
2022/04/06 05:00:54;;;;;;;4.00;3.80;;;;;;;8.60;81.17;99990.63;6094815;23;20025;-70
2022/04/06 05:03:21;;;;;;;5.35;5.15;;;;;;;8.13;81.04;99907.75;6109066;23;20053;-70
2022/04/06 05:05:51;;;;;;;3.63;3.53;;;;;;;8.58;81.43;99977.63;6116487;23;20343;-71
2022/04/06 05:08:23;;;;;;;5.68;5.35;;;;;;;8.43;82.43;99977.63;6078468;23;20094;-71
2022/04/06 05:10:50;;;;;;;3.40;3.30;;;;;;;8.58;82.00;99972.38;6120870;23;20169;-70
2022/04/06 05:13:20;;;;;;;5.32;5.13;;;;;;;8.63;82.19;99971.28;6111341;23;20029;-69
2022/04/06 05:15:47;;;;;;;3.63;3.53;;;;;;;8.65;82.12;99980.72;6107195;23;20016;-69
2022/04/06 05:18:14;;;;;;;4.30;4.10;;;;;;;8.63;82.42;99974.75;6117885;23;20045;-69
2022/04/06 05:20:40;;;;;;;3.60;3.50;;;;;;;8.53;81.88;99944.81;6112241;23;20045;-69
2022/04/06 05:23:07;;;;;;;3.67;3.58;;;;;;;8.53;81.69;99937.78;6110841;23;20103;-69
2022/04/06 05:25:33;;;;;;;4.00;3.80;;;;;;;8.64;82.04;99952.03;6108327;23;20084;-69
2022/04/06 05:28:00;;;;;;;3.67;3.58;;;;;;;8.70;82.83;99968.25;6121348;23;20035;-69
2022/04/06 05:30:27;;;;;;;5.10;4.90;;;;;;;8.42;82.78;99923.63;6108652;23;20114;-69
2022/04/06 05:32:56;;;;;;;3.65;3.55;;;;;;;8.71;82.86;99977.78;6115023;23;20316;-69
2022/04/06 05:35:25;;;;;;;5.47;5.28;;;;;;;8.71;83.67;99979.53;6082796;23;20028;-69
2022/04/06 05:37:51;;;;;;;3.63;3.53;;;;;;;8.41;83.40;99928.03;6115717;23;20013;-69
2022/04/06 05:40:19;;;;;;;5.25;5.05;;;;;;;8.74;83.69;99982.84;6110299;23;20363;-69
2022/04/06 05:42:46;;;;;;;3.65;3.55;;;;;;;8.49;83.20;99935.44;6112512;23;20367;-69
2022/04/06 05:45:13;;;;;;;4.80;4.60;;;;;;;8.66;83.71;99976.34;6110524;23;20052;-68
2022/04/06 05:47:42;;;;;;;4.03;3.83;;;;;;;8.72;83.56;99979.47;6115235;23;20017;-69
2022/04/06 05:50:10;;;;;;;3.85;3.72;;;;;;;7.55;83.43;99792.44;6084398;23;20049;-69
2022/04/06 05:52:36;;;;;;;4.10;3.90;;;;;;;8.75;83.53;99974.03;6112433;23;20029;-69
2022/04/06 05:55:04;;;;;;;3.65;3.55;;;;;;;8.67;82.63;99963.19;6114812;23;20339;-69
2022/04/06 05:57:30;;;;;;;3.60;3.50;;;;;;;8.53;82.15;99936.97;6114648;23;20447;-69
2022/04/06 05:59:57;;;;;;;4.20;4.00;;;;;;;8.80;82.33;99976.44;6112164;23;20092;-69
2022/04/06 06:02:24;;;;;;;5.47;5.28;;;;;;;8.49;82.54;99927.59;6088194;23;20021;-69
2022/04/06 06:04:54;;;;;;;3.75;3.65;;;;;;;8.82;82.13;99978.94;6116187;23;20025;-69
2022/04/06 06:07:21;;;;;;;5.07;4.88;;;;;;;8.63;81.73;99930.28;6106607;23;20026;-69
2022/04/06 06:09:47;;;;;;;3.65;3.55;;;;;;;8.62;81.10;99920.75;6117514;23;20410;-68
2022/04/06 06:12:14;;;;;;;5.45;5.25;;;;;;;8.87;80.31;99969.06;6102159;23;20027;-69
2022/04/06 06:14:41;;;;;;;3.70;3.60;;;;;;;8.72;80.51;99950.69;6105983;23;20080;-69
2022/04/06 06:17:08;;;;;;;3.83;3.72;;;;;;;8.89;80.75;99980.28;6113194;23;20022;-68
2022/04/06 06:19:34;;;;;;;4.00;3.80;;;;;;;8.87;80.78;99975.13;6088350;23;20017;-69
2022/04/06 06:22:01;;;;;;;3.90;3.80;;;;;;;8.91;80.66;99983.66;6069640;23;20025;-69
2022/04/06 06:24:27;;;;;;;5.18;4.97;;;;;;;8.89;80.66;99964.59;6075915;23;20721;-69
2022/04/06 06:26:54;;;;;;;3.80;3.70;;;;;;;8.74;79.68;99947.97;6084356;23;20096;-69
2022/04/06 06:29:22;;;;;;;5.47;5.28;;;;;;;8.91;79.96;99973.19;6062155;23;20014;-68
2022/04/06 06:31:49;;;;;;;3.85;3.75;;;;;;;8.49;80.05;99904.91;6075904;23;20032;-69
2022/04/06 06:34:16;;;;;;;5.15;4.95;;;;;;;8.97;79.55;99970.22;6065876;23;20018;-70
2022/04/06 06:36:43;;;;;;;4.50;4.30;;;;;;;8.95;78.80;99970.31;6081168;23;20017;-74
2022/04/06 06:39:09;;;;;;;4.30;4.10;;;;;;;9.01;79.33;99971.72;6063058;23;20029;-75
2022/04/06 06:41:36;;;;;;;4.10;3.90;;;;;;;8.98;79.39;99974.53;6084285;23;20220;-72
2022/04/06 06:44:04;;;;;;;4.00;3.80;;;;;;;8.89;78.83;99949.72;6084852;23;20110;-75
2022/04/06 06:46:31;;;;;;;3.97;3.80;;;;;;;8.84;78.60;99940.44;6070990;23;20395;-69
2022/04/06 06:49:04;;;;;;;4.03;3.83;;;;;;;9.16;78.91;99965.63;6080723;23;20421;-69
2022/04/06 06:51:32;;;;;;;4.47;4.28;;;;;;;9.23;79.17;99965.25;6082165;23;20386;-69
2022/04/06 06:53:59;;;;;;;3.92;3.80;;;;;;;9.29;77.98;99967.53;6086966;23;20089;-70
2022/04/06 06:56:26;;;;;;;5.63;5.43;;;;;;;8.10;77.90;99772.88;6072163;23;20194;-69
2022/04/06 06:58:53;;;;;;;4.05;3.85;;;;;;;9.29;77.98;99959.66;6082362;23;20369;-69
2022/04/06 07:01:19;;;;;;;5.60;5.40;;;;;;;9.23;77.55;99955.63;6079351;23;20164;-69
2022/04/06 07:03:46;;;;;;;4.20;4.00;;;;;;;9.29;77.76;99972.75;6084853;23;20358;-68
2022/04/06 07:06:12;;;;;;;5.35;5.15;;;;;;;9.29;76.71;99963.13;6080306;23;20281;-68
2022/04/06 07:08:38;;;;;;;3.80;3.70;;;;;;;9.28;76.54;99963.19;6086532;23;20018;-68
2022/04/06 07:11:05;;;;;;;4.05;3.85;;;;;;;9.24;76.69;99931.16;6098707;23;20053;-68
2022/04/06 07:13:32;;;;;;;4.88;4.60;;;;;;;9.19;76.86;99951.50;6079106;23;20034;-68
2022/04/06 07:15:58;;;;;;;4.03;3.83;;;;;;;8.91;76.94;99892.91;6096900;23;20012;-68
2022/04/06 07:18:25;;;;;;;5.45;5.25;;;;;;;9.06;76.70;99916.50;6081493;23;20068;-68
2022/04/06 07:20:58;;;;;;;4.13;3.92;;;;;;;9.00;77.27;99904.63;6074396;23;20117;-67
2022/04/06 07:23:25;;;;;;;5.85;5.55;;;;;;;9.17;77.18;99912.31;6074967;23;20082;-67
2022/04/06 07:25:52;;;;;;;4.00;3.80;;;;;;;9.41;76.86;99940.59;6085204;23;20032;-68
2022/04/06 07:28:18;;;;;;;5.65;5.35;;;;;;;9.41;76.99;99948.47;6079557;23;20525;-68
2022/04/06 07:30:45;;;;;;;4.00;3.83;;;;;;;9.49;76.71;99925.28;6081907;23;20455;-68
2022/04/06 07:33:13;;;;;;;4.13;3.95;;;;;;;9.50;76.47;99915.63;6099985;23;20041;-68
2022/04/06 07:35:39;;;;;;;4.20;4.00;;;;;;;9.39;76.45;99911.06;6093106;23;20220;-68
2022/04/06 07:38:06;;;;;;;4.20;4.00;;;;;;;9.30;75.60;99904.59;6104174;23;20468;-65
2022/04/06 07:40:35;;;;;;;4.10;3.90;;;;;;;9.48;75.98;99931.47;6071599;23;21675;-68
2022/04/06 07:43:02;;;;;;;4.20;4.00;;;;;;;9.42;76.09;99903.03;6119535;23;20025;-68
2022/04/06 07:45:29;;;;;;;4.93;4.72;;;;;;;9.43;75.73;99909.94;6072807;23;20032;-68
2022/04/06 07:47:56;;;;;;;4.05;3.85;;;;;;;9.39;76.00;99932.84;6085180;23;20201;-68
2022/04/06 07:50:23;;;;;;;5.72;5.28;;;;;;;9.48;76.54;99936.69;6077647;23;20223;-66
2022/04/06 07:52:50;;;;;;;4.15;3.95;;;;;;;9.31;76.62;99893.19;6105705;23;20681;-68
2022/04/06 07:55:16;;;;;;;5.57;5.38;;;;;;;9.26;76.16;99895.25;6079638;23;20028;-68
2022/04/06 07:57:43;;;;;;;4.50;4.30;;;;;;;9.43;76.16;99917.78;6119310;23;20197;-69
2022/04/06 08:00:12;;;;;;;4.10;3.95;;;;;;;8.65;75.15;99795.03;6087516;23;20160;-65
2022/04/06 08:02:39;;;;;;;4.20;4.00;;;;;;;9.44;76.04;99929.09;6114268;23;20122;-68
2022/04/06 08:05:09;;;;;;;4.45;4.25;;;;;;;9.31;75.92;99913.28;6075907;23;20017;-68
2022/04/06 08:07:39;;;;;;;4.43;4.22;;;;;;;9.33;76.36;99937.59;6104692;23;20037;-68
2022/04/06 08:10:14;;;;;;;3.90;3.80;;;;;;;9.46;76.55;99928.09;6074002;23;20022;-67
2022/04/06 08:12:41;;;;;;;3.70;3.60;;;;;;;9.59;75.62;99944.75;6120594;23;20450;-68
2022/04/06 08:15:09;;;;;;;4.07;3.88;;;;;;;9.62;75.00;99951.56;6081356;23;20029;-67
2022/04/06 08:17:38;;;;;;;4.20;4.00;;;;;;;9.64;74.86;99935.75;6110676;23;20348;-68
2022/04/06 08:20:08;;;;;;;4.15;3.95;;;;;;;9.51;72.14;99915.53;6088060;23;20068;-68
2022/04/06 08:22:35;;;;;;;4.20;4.00;;;;;;;9.65;72.46;99940.91;6086574;23;20034;-67
2022/04/06 08:25:11;;;;;;;4.20;4.00;;;;;;;9.68;71.08;99953.84;6102252;23;20084;-68
2022/04/06 08:27:57;;;;;;;3.80;3.70;;;;;;;9.73;70.33;99940.44;6088694;23;20033;-69
2022/04/06 08:30:24;;;;;;;5.60;5.40;;;;;;;9.64;71.42;99948.84;6106719;23;20089;-69
2022/04/06 08:32:51;;;;;;;3.80;3.70;;;;;;;9.69;71.78;99952.88;6116184;23;20176;-69
2022/04/06 08:35:17;;;;;;;5.18;4.97;;;;;;;9.45;71.57;99917.69;6110821;23;20594;-69
2022/04/06 08:37:43;;;;;;;3.90;3.75;;;;;;;9.57;71.43;99949.22;6112525;23;20070;-69
2022/04/06 08:40:11;;;;;;;4.53;4.32;;;;;;;9.59;71.25;99936.03;6103659;23;20048;-69
2022/04/06 08:42:40;;;;;;;3.80;3.70;;;;;;;9.57;71.08;99925.66;6115128;23;20018;-69
2022/04/06 08:45:08;;;;;;;3.85;3.75;;;;;;;9.61;69.26;99933.34;6087301;23;20081;-69
2022/04/06 08:47:36;;;;;;;4.18;3.97;;;;;;;9.59;68.76;99907.22;6097999;23;20364;-69
2022/04/06 08:50:05;;;;;;;3.83;3.72;;;;;;;9.82;70.27;99936.41;6112882;23;20521;-69
2022/04/06 08:52:35;;;;;;;3.95;3.80;;;;;;;9.67;68.94;99915.47;6085834;23;20381;-74
2022/04/06 08:55:21;;;;;;;5.10;4.90;;;;;;;9.46;69.64;99880.09;6094354;23;20084;-73
2022/04/06 08:57:48;;;;;;;4.40;4.10;;;;;;;9.82;68.39;99921.53;6118738;23;20019;-74
2022/04/06 09:00:17;;;;;;;5.20;5.00;;;;;;;9.86;68.51;99925.66;6104199;23;20217;-72
2022/04/06 09:02:45;;;;;;;4.07;3.88;;;;;;;10.07;68.23;99927.91;6103100;23;20071;-73
2022/04/06 09:05:11;;;;;;;4.70;4.50;;;;;;;10.07;67.50;99875.47;6100882;23;20022;-74
2022/04/06 09:07:39;;;;;;;4.10;3.90;;;;;;;10.09;66.07;99866.56;6109536;23;20092;-71
2022/04/06 09:10:05;;;;;;;4.20;4.00;;;;;;;10.45;66.73;99904.50;6114110;23;20197;-72
2022/04/06 09:12:32;;;;;;;3.95;3.80;;;;;;;10.61;66.49;99893.88;6079809;23;20017;-72
2022/04/06 09:15:02;;;;;;;4.18;3.97;;;;;;;10.94;65.77;99901.31;6114158;23;20042;-69
2022/04/06 09:17:29;;;;;;;5.00;4.75;;;;;;;10.93;63.02;99883.03;6110266;23;20395;-70
2022/04/06 09:19:59;;;;;;;4.20;4.00;;;;;;;11.08;63.13;99908.25;6104452;23;20029;-69
2022/04/06 09:22:25;;;;;;;6.25;5.95;;;;;;;11.07;62.85;99868.97;6092016;23;20100;-70
2022/04/06 09:24:57;;;;;;;4.50;4.30;;;;;;;11.47;62.63;99903.88;6108268;23;20060;-70
2022/04/06 09:27:30;;;;;;;5.78;5.55;;;;;;;11.63;61.38;99900.19;6096555;23;20372;-70
2022/04/06 09:29:58;;;;;;;4.30;4.10;;;;;;;11.15;61.52;99841.25;6109911;23;20177;-69
2022/04/06 09:32:25;;;;;;;5.80;5.55;;;;;;;11.64;61.75;99893.97;6065891;23;20031;-69
2022/04/06 09:35:00;;;;;;;4.30;4.10;;;;;;;11.23;60.86;99860.91;6108048;23;20016;-69
2022/04/06 09:37:31;;;;;;;5.13;4.93;;;;;;;11.76;60.48;99903.63;6109482;23;20274;-69
2022/04/06 09:40:07;;;;;;;4.35;4.15;;;;;;;11.92;61.24;99901.63;6105151;23;20014;-70
2022/04/06 09:42:34;;;;;;;4.40;4.20;;;;;;;11.78;61.06;99899.09;6111295;23;20230;-71
2022/04/06 09:47:53;;;;;;;4.65;4.45;;;;;;;11.57;61.08;99885.69;6098023;23;20578;-70
2022/04/06 09:50:22;;;;;;;5.50;5.30;;;;;;;11.63;61.10;99872.13;6071889;23;20030;-69
2022/04/06 09:52:53;;;;;;;4.20;4.00;;;;;;;11.72;60.82;99894.28;6084192;23;20018;-70
2022/04/06 09:55:22;;;;;;;5.65;5.45;;;;;;;11.66;61.79;99890.28;6095733;23;20041;-70
2022/04/06 09:57:51;;;;;;;4.38;4.18;;;;;;;11.41;61.36;99885.91;6116513;23;20358;-70
2022/04/06 10:00:28;;;;;;;5.28;5.07;;;;;;;11.12;63.56;99880.00;6096679;23;20419;-70
2022/04/06 10:03:03;;;;;;;4.50;4.30;;;;;;;11.08;62.77;99891.66;6109152;23;20009;-70
2022/04/06 10:05:33;;;;;;;5.10;4.90;;;;;;;11.23;63.72;99884.53;6113316;23;20104;-69
2022/04/06 10:08:08;;;;;;;4.05;3.85;;;;;;;11.01;63.57;99857.09;6119258;23;20513;-70
2022/04/06 10:10:40;;;;;;;4.40;4.20;;;;;;;11.06;63.79;99886.50;6114721;23;20092;-69
2022/04/06 10:13:08;;;;;;;4.10;3.90;;;;;;;11.00;63.25;99893.94;6116875;23;20363;-70
2022/04/06 10:15:56;;;;;;;4.40;4.20;;;;;;;11.12;64.12;99872.13;6118160;23;20408;-69
2022/04/06 10:18:24;;;;;;;5.70;5.47;;;;;;;11.29;64.42;99860.47;6102057;23;20026;-70
2022/04/06 10:20:55;;;;;;;4.20;4.00;;;;;;;11.20;64.44;99877.69;6110297;23;20467;-71
2022/04/06 10:23:37;;;;;;;6.43;6.13;;;;;;;11.22;63.88;99882.84;6082026;23;20287;-70
2022/04/06 10:26:31;;;;;;;5.15;4.95;;;;;;;11.45;64.98;99881.28;6080247;23;20024;-75
2022/04/06 10:28:57;;;;;;;4.30;4.10;;;;;;;11.14;63.76;99878.94;6110265;23;20035;-70
2022/04/06 10:31:28;;;;;;;5.82;5.57;;;;;;;11.12;65.53;99880.00;6080000;23;20576;-70
2022/04/06 10:34:24;;;;;;;4.30;4.10;;;;;;;10.94;66.81;99884.69;6090068;23;20077;-70
2022/04/06 10:37:11;;;;;;;4.40;4.20;;;;;;;11.03;66.99;99864.88;6087691;23;20026;-70
2022/04/06 10:39:57;;;;;;;4.35;4.15;;;;;;;11.26;65.69;99874.63;6086086;23;20006;-73
2022/04/06 10:42:37;;;;;;;5.57;5.38;;;;;;;11.37;65.22;99860.78;6087708;23;20022;-74
2022/04/06 10:45:25;;;;;;;4.60;4.40;;;;;;;11.03;66.53;99849.13;6116383;23;20029;-70
2022/04/06 10:48:18;;;;;;;4.30;4.10;;;;;;;11.23;65.40;99860.91;6055607;23;20034;-75
2022/04/06 10:50:49;;;;;;;4.20;4.00;;;;;;;11.33;65.85;99860.16;6116099;23;20070;-70
2022/04/06 10:53:18;;;;;;;6.00;5.70;;;;;;;11.68;65.32;99862.09;6082195;23;20177;-70
2022/04/06 10:56:12;;;;;;;4.35;4.15;;;;;;;11.61;65.36;99853.00;6079288;23;20194;-71
2022/04/06 10:58:58;;;;;;;4.95;4.75;;;;;;;11.66;65.51;99856.13;6088178;23;20054;-69
2022/04/06 11:01:33;;;;;;;6.05;5.75;;;;;;;11.47;64.67;99845.22;6082335;23;20028;-70
2022/04/06 11:04:22;;;;;;;4.20;4.00;;;;;;;11.33;65.24;99818.13;6113442;23;20312;-70
2022/04/06 11:06:56;;;;;;;4.40;4.20;;;;;;;11.11;64.95;99808.25;6086634;23;20085;-74
2022/04/06 11:12:22;;;;;;;4.10;3.90;;;;;;;11.82;64.26;99842.75;6082268;23;20108;-75
2022/04/06 11:14:57;;;;;;;4.13;3.92;;;;;;;11.36;63.81;99698.84;6088303;23;20092;-70
2022/04/06 11:17:34;;;;;;;6.28;5.97;;;;;;;12.75;62.41;99837.75;6074465;23;20022;-70
2022/04/06 11:20:08;;;;;;;4.90;4.70;;;;;;;12.69;62.14;99825.03;6086995;23;20030;-74
2022/04/06 11:22:38;;;;;;;4.60;4.40;;;;;;;13.11;61.64;99817.47;6123668;23;20020;-69
2022/04/06 11:25:11;;;;;;;4.65;4.45;;;;;;;13.17;60.27;99831.97;6124310;23;20409;-74
2022/04/06 11:27:41;;;;;;;4.70;4.50;;;;;;;13.04;59.34;99820.69;6116489;23;20017;-74
2022/04/06 11:30:12;;;;;;;4.70;4.50;;;;;;;12.90;61.14;99811.19;6116459;23;20607;-75
2022/04/06 11:32:49;;;;;;;4.63;4.43;;;;;;;12.96;60.47;99821.25;6130281;23;20020;-75
2022/04/06 11:35:16;;;;;;;4.90;4.70;;;;;;;12.53;59.58;99737.66;6110395;23;20025;-75
2022/04/06 11:37:48;;;;;;;4.45;4.25;;;;;;;12.93;59.08;99814.44;6095914;23;20022;-74
2022/04/06 11:40:22;;;;;;;5.10;4.90;;;;;;;12.73;59.85;99829.13;6106278;23;20017;-76
2022/04/06 11:42:50;;;;;;;4.70;4.50;;;;;;;12.44;60.20;99809.38;6112834;23;20017;-75
2022/04/06 11:45:24;;;;;;;6.05;5.75;;;;;;;12.76;61.60;99812.25;6106016;23;20669;-74
2022/04/06 11:47:58;;;;;;;4.72;4.53;;;;;;;12.37;61.52;99783.53;6111968;23;20114;-75
2022/04/06 11:50:33;;;;;;;5.82;5.57;;;;;;;12.82;60.84;99814.41;6110248;23;20050;-73
2022/04/06 11:53:04;;;;;;;4.60;4.40;;;;;;;12.67;60.53;99819.03;6108025;23;20016;-73
2022/04/06 11:55:48;;;;;;;4.57;4.38;;;;;;;12.53;61.00;99816.63;6104953;23;20010;-74
2022/04/06 11:58:39;;;;;;;5.63;5.32;;;;;;;12.35;61.70;99809.13;6101157;23;20089;-75